Casselton, North Dakota
Current Conditions -  °F | °C
As of 9:53 AM on Friday 24 Oct 2014 (Local Time) from KFAR Reporting Station
Clear Clear  
Wind Chill:   Ceiling: Unl
Heat Index:   Visibility: 10mi
Dew Point:   Wind: 9mph
Humidity: 77%   Direction: 200°SSW
Pressure: 29.81"   Gusts: NA
Location:  46.9°N, 97.21°W
Report Text: KFAR 241453Z 20008KT 10SM CLR 09/06 A2981 RMK AO2 SLP098 T00940056 53004
Loading
Personal Weather Stations






























Interactive Weather Map
Tropical Storm Tracking
New forecast layout! Learn more

10-Day Weather Forecast

Advertisements
Track Severe Weather on mobile